Time;durP1;ratioP1;P1;durP2;ratioP2;P2;SDS_P1;SDS_P2;PMS_P1;PMS_P2;Temp;Humidity;BMP_temperature;BMP_pressure;BME280_temperature;BME280_humidity;BME280_pressure;Samples;Min_cycle;Max_cycle;Signal;HPM_P1;HPM_P2
2021/09/19 00:04:01;;;;;;;0.03;0.03;;;;;;;;;;10427310;28;20064;-70
2021/09/19 00:09:04;;;;;;;0.08;0.08;;;;;;;;;;10425295;28;20052;-70
2021/09/19 00:14:08;;;;;;;0.00;0.00;;;;;;;;;;10423174;28;20120;-70
2021/09/19 00:19:12;;;;;;;0.00;0.00;;;;;;;;;;10431659;28;20131;-69
2021/09/19 00:24:14;;;;;;;0.00;0.00;;;;;;;;;;10436188;28;20045;-70
2021/09/19 00:29:18;;;;;;;0.00;0.00;;;;;;;;;;10431747;28;20041;-70
2021/09/19 00:34:21;;;;;;;0.00;0.00;;;;;;;;;;10435482;28;20136;-70
2021/09/19 00:39:24;;;;;;;0.00;0.00;;;;;;;;;;10424362;28;20159;-70
2021/09/19 00:44:28;;;;;;;0.00;0.00;;;;;;;;;;10413680;28;20045;-70
2021/09/19 00:49:31;;;;;;;0.00;0.00;;;;;;;;;;10419743;28;20056;-70
2021/09/19 00:54:38;;;;;;;0.00;0.00;;;;;;;;;;10415396;28;20044;-70
2021/09/19 00:59:47;;;;;;;0.00;0.00;;;;;;;;;;10428459;28;20049;-70
2021/09/19 01:04:50;;;;;;;0.00;0.00;;;;;;;;;;10430418;28;20053;-70
2021/09/19 01:09:53;;;;;;;0.00;0.00;;;;;;;;;;10429581;28;20055;-70
2021/09/19 01:14:59;;;;;;;0.00;0.00;;;;;;;;;;10432269;28;20048;-70
2021/09/19 01:20:02;;;;;;;0.00;0.00;;;;;;;;;;10435031;28;20044;-70
2021/09/19 01:25:09;;;;;;;0.10;0.10;;;;;;;;;;10434331;28;20043;-70
2021/09/19 01:30:13;;;;;;;0.00;0.00;;;;;;;;;;10431466;28;20491;-70
2021/09/19 01:35:15;;;;;;;0.00;0.00;;;;;;;;;;10429744;28;20498;-70
2021/09/19 01:40:19;;;;;;;0.00;0.00;;;;;;;;;;10432912;28;20051;-70
2021/09/19 01:45:23;;;;;;;0.08;0.08;;;;;;;;;;10425620;28;20048;-70
2021/09/19 01:50:27;;;;;;;0.00;0.00;;;;;;;;;;10428724;28;20422;-70
2021/09/19 01:55:31;;;;;;;0.00;0.00;;;;;;;;;;10423967;28;20076;-70
2021/09/19 02:00:34;;;;;;;0.00;0.00;;;;;;;;;;10427904;28;20049;-70
2021/09/19 02:05:37;;;;;;;0.10;0.10;;;;;;;;;;10426250;28;20118;-69
2021/09/19 02:10:42;;;;;;;0.00;0.00;;;;;;;;;;10433679;28;20049;-70
2021/09/19 02:15:44;;;;;;;0.00;0.00;;;;;;;;;;10421048;28;20049;-70
2021/09/19 02:20:48;;;;;;;0.05;0.05;;;;;;;;;;10407330;28;20041;-70
2021/09/19 02:25:54;;;;;;;0.10;0.10;;;;;;;;;;10426679;28;20152;-70
2021/09/19 02:30:57;;;;;;;0.00;0.00;;;;;;;;;;10427979;28;21054;-70
2021/09/19 02:36:00;;;;;;;0.00;0.00;;;;;;;;;;10407882;28;20495;-70
2021/09/19 02:41:04;;;;;;;0.00;0.00;;;;;;;;;;10421452;28;20040;-70
2021/09/19 02:46:07;;;;;;;0.00;0.00;;;;;;;;;;10419768;28;20051;-70
2021/09/19 02:51:10;;;;;;;0.00;0.00;;;;;;;;;;10420480;28;20075;-70
2021/09/19 02:56:14;;;;;;;0.20;0.10;;;;;;;;;;10423802;28;20044;-70
2021/09/19 03:01:18;;;;;;;0.00;0.00;;;;;;;;;;10410943;28;20168;-70
2021/09/19 03:06:24;;;;;;;0.00;0.00;;;;;;;;;;10416414;28;20041;-70
2021/09/19 03:11:28;;;;;;;0.00;0.00;;;;;;;;;;10424102;28;20051;-70
2021/09/19 03:16:31;;;;;;;0.00;0.00;;;;;;;;;;10416542;28;20045;-70
2021/09/19 03:21:34;;;;;;;0.00;0.00;;;;;;;;;;10423217;28;20055;-69
2021/09/19 03:26:38;;;;;;;0.00;0.00;;;;;;;;;;10425523;28;20395;-70
2021/09/19 03:31:42;;;;;;;0.00;0.00;;;;;;;;;;10427972;28;20159;-70
2021/09/19 03:36:45;;;;;;;0.10;0.10;;;;;;;;;;10428266;28;20037;-70
2021/09/19 03:41:49;;;;;;;0.00;0.00;;;;;;;;;;10429910;28;20735;-70
2021/09/19 03:46:53;;;;;;;0.00;0.00;;;;;;;;;;10425568;28;20045;-70
2021/09/19 03:51:55;;;;;;;0.00;0.00;;;;;;;;;;10417105;28;20041;-70
2021/09/19 03:57:01;;;;;;;0.00;0.00;;;;;;;;;;10417297;28;20033;-71
2021/09/19 04:02:03;;;;;;;0.00;0.00;;;;;;;;;;10401789;28;20071;-71
2021/09/19 04:07:07;;;;;;;0.00;0.00;;;;;;;;;;10412538;28;20034;-71
2021/09/19 04:12:23;;;;;;;0.00;0.00;;;;;;;;;;10432297;28;20514;-72
2021/09/19 04:17:26;;;;;;;0.00;0.00;;;;;;;;;;10432897;28;20041;-71
2021/09/19 04:22:30;;;;;;;0.00;0.00;;;;;;;;;;10425788;28;20502;-71
2021/09/19 04:27:34;;;;;;;0.10;0.10;;;;;;;;;;10420533;28;20509;-71
2021/09/19 04:32:38;;;;;;;0.10;0.10;;;;;;;;;;10416575;28;20072;-71
2021/09/19 04:37:41;;;;;;;0.10;0.10;;;;;;;;;;10435453;28;20095;-71
2021/09/19 04:42:45;;;;;;;0.00;0.00;;;;;;;;;;10430945;28;20051;-71
2021/09/19 04:47:47;;;;;;;0.00;0.00;;;;;;;;;;10422080;28;20786;-71
2021/09/19 04:52:50;;;;;;;0.10;0.10;;;;;;;;;;10422151;28;20898;-71
2021/09/19 04:57:55;;;;;;;0.03;0.03;;;;;;;;;;10421603;28;20383;-71
2021/09/19 05:02:57;;;;;;;0.00;0.00;;;;;;;;;;10427549;28;20041;-71
2021/09/19 05:08:01;;;;;;;0.05;0.05;;;;;;;;;;10429224;28;20099;-71
2021/09/19 05:13:05;;;;;;;0.00;0.00;;;;;;;;;;10425352;28;20463;-71
2021/09/19 05:18:08;;;;;;;0.03;0.03;;;;;;;;;;10423925;28;20055;-72
2021/09/19 05:23:15;;;;;;;0.00;0.00;;;;;;;;;;10430441;28;20048;-71
2021/09/19 05:28:19;;;;;;;0.00;0.00;;;;;;;;;;10427285;28;20495;-71
2021/09/19 05:33:22;;;;;;;0.00;0.00;;;;;;;;;;10422317;28;20076;-70
2021/09/19 05:38:25;;;;;;;0.00;0.00;;;;;;;;;;10433182;28;20041;-71
2021/09/19 05:43:29;;;;;;;0.00;0.00;;;;;;;;;;10421679;28;20060;-71
2021/09/19 05:48:32;;;;;;;0.00;0.00;;;;;;;;;;10423439;28;20099;-69
2021/09/19 05:53:34;;;;;;;0.00;0.00;;;;;;;;;;10417212;28;20053;-69
2021/09/19 05:58:38;;;;;;;0.00;0.00;;;;;;;;;;10408830;28;20378;-69
2021/09/19 06:03:41;;;;;;;0.00;0.00;;;;;;;;;;10407282;28;20042;-69
2021/09/19 06:08:44;;;;;;;0.00;0.00;;;;;;;;;;10408362;28;20057;-68
2021/09/19 06:13:48;;;;;;;0.00;0.00;;;;;;;;;;10435895;28;20052;-77
2021/09/19 06:18:51;;;;;;;0.05;0.05;;;;;;;;;;10457243;28;20498;-66
2021/09/19 06:23:54;;;;;;;0.10;0.10;;;;;;;;;;10463680;28;20074;-66
2021/09/19 06:29:00;;;;;;;0.00;0.00;;;;;;;;;;10465364;28;20508;-74
2021/09/19 06:34:04;;;;;;;0.00;0.00;;;;;;;;;;10465452;28;20040;-75
2021/09/19 06:39:08;;;;;;;0.00;0.00;;;;;;;;;;10456185;28;20048;-75
2021/09/19 06:44:13;;;;;;;0.00;0.00;;;;;;;;;;10459628;28;20055;-73
2021/09/19 06:49:17;;;;;;;0.10;0.10;;;;;;;;;;10462524;28;20045;-75
2021/09/19 06:54:20;;;;;;;0.00;0.00;;;;;;;;;;10467641;28;20044;-74
2021/09/19 06:59:24;;;;;;;0.00;0.00;;;;;;;;;;10466684;28;20040;-70
2021/09/19 07:04:26;;;;;;;0.00;0.00;;;;;;;;;;10468421;28;20055;-68
2021/09/19 07:09:30;;;;;;;0.00;0.00;;;;;;;;;;10467032;28;20149;-69
2021/09/19 07:14:34;;;;;;;0.00;0.00;;;;;;;;;;10462720;28;20041;-69
2021/09/19 07:19:38;;;;;;;0.00;0.00;;;;;;;;;;10439381;28;20056;-74
2021/09/19 07:24:42;;;;;;;0.10;0.10;;;;;;;;;;10464432;28;20491;-75
2021/09/19 07:29:47;;;;;;;0.10;0.10;;;;;;;;;;10460586;28;20179;-72
2021/09/19 07:34:49;;;;;;;0.10;0.10;;;;;;;;;;10467696;28;20047;-69
2021/09/19 07:39:52;;;;;;;0.10;0.10;;;;;;;;;;10466017;28;20044;-68
2021/09/19 07:44:57;;;;;;;0.00;0.00;;;;;;;;;;10465113;28;20114;-71
2021/09/19 07:50:00;;;;;;;0.00;0.00;;;;;;;;;;10464754;28;20055;-69
2021/09/19 07:55:03;;;;;;;0.20;0.00;;;;;;;;;;10477470;28;20041;-71
2021/09/19 08:00:08;;;;;;;0.00;0.00;;;;;;;;;;10459120;28;20048;-71
2021/09/19 08:05:15;;;;;;;0.00;0.00;;;;;;;;;;10458123;28;20053;-71
2021/09/19 08:10:18;;;;;;;0.00;0.00;;;;;;;;;;10461351;28;20373;-72
2021/09/19 08:15:22;;;;;;;0.10;0.00;;;;;;;;;;10461780;28;20052;-71
2021/09/19 08:20:25;;;;;;;0.10;0.10;;;;;;;;;;10469230;28;20529;-71
2021/09/19 08:25:28;;;;;;;0.00;0.00;;;;;;;;;;10464828;28;20053;-71
2021/09/19 08:30:32;;;;;;;0.00;0.00;;;;;;;;;;10467116;28;20075;-71
2021/09/19 08:35:35;;;;;;;0.00;0.00;;;;;;;;;;10467453;28;20052;-71
2021/09/19 08:40:38;;;;;;;0.00;0.00;;;;;;;;;;10458576;28;20044;-71
2021/09/19 08:45:42;;;;;;;0.00;0.00;;;;;;;;;;10469313;28;20040;-71
2021/09/19 08:50:45;;;;;;;0.10;0.10;;;;;;;;;;10475899;28;20057;-71
2021/09/19 08:55:48;;;;;;;0.00;0.00;;;;;;;;;;10468800;28;20434;-71
2021/09/19 09:00:52;;;;;;;0.00;0.00;;;;;;;;;;10458972;28;20057;-71
2021/09/19 09:05:56;;;;;;;0.00;0.00;;;;;;;;;;10437526;28;20519;-70
2021/09/19 09:10:59;;;;;;;0.00;0.00;;;;;;;;;;10484047;28;20544;-71
2021/09/19 09:16:05;;;;;;;0.00;0.00;;;;;;;;;;10450925;28;20593;-71
2021/09/19 09:21:09;;;;;;;0.00;0.00;;;;;;;;;;10457764;28;20053;-71
2021/09/19 09:26:22;;;;;;;0.03;0.03;;;;;;;;;;10451400;28;20059;-71
2021/09/19 09:31:28;;;;;;;0.00;0.00;;;;;;;;;;10455630;28;20502;-71
2021/09/19 09:36:32;;;;;;;0.00;0.00;;;;;;;;;;10457404;28;20061;-71
2021/09/19 09:41:39;;;;;;;0.10;0.10;;;;;;;;;;10451879;28;20040;-71
2021/09/19 09:46:49;;;;;;;0.00;0.00;;;;;;;;;;10458126;28;20047;-71
2021/09/19 09:51:52;;;;;;;0.00;0.00;;;;;;;;;;10463548;28;20052;-71
2021/09/19 09:56:55;;;;;;;0.03;0.03;;;;;;;;;;10467231;28;20045;-71
2021/09/19 10:02:01;;;;;;;0.00;0.00;;;;;;;;;;10465067;28;20059;-70
2021/09/19 10:07:04;;;;;;;0.00;0.00;;;;;;;;;;10460010;28;20378;-71
2021/09/19 10:12:07;;;;;;;0.00;0.00;;;;;;;;;;10471560;28;20052;-72
2021/09/19 10:17:11;;;;;;;0.03;0.00;;;;;;;;;;10460278;28;20040;-71
2021/09/19 10:22:17;;;;;;;0.00;0.00;;;;;;;;;;10466714;28;20049;-71
2021/09/19 10:27:23;;;;;;;0.00;0.00;;;;;;;;;;10471578;28;20056;-71
2021/09/19 10:32:35;;;;;;;0.00;0.00;;;;;;;;;;10472407;28;20051;-71
2021/09/19 10:37:48;;;;;;;0.00;0.00;;;;;;;;;;10472131;28;20817;-71
2021/09/19 10:42:53;;;;;;;0.00;0.00;;;;;;;;;;10459882;28;20056;-70
2021/09/19 10:47:59;;;;;;;0.00;0.00;;;;;;;;;;10462608;28;20036;-71
2021/09/19 10:53:03;;;;;;;0.10;0.10;;;;;;;;;;10456665;28;20052;-72
2021/09/19 10:58:08;;;;;;;0.00;0.00;;;;;;;;;;10425822;28;20123;-72
2021/09/19 11:03:14;;;;;;;0.00;0.00;;;;;;;;;;10436107;28;20178;-69
2021/09/19 11:08:29;;;;;;;0.00;0.00;;;;;;;;;;10462903;28;20394;-70
2021/09/19 11:13:36;;;;;;;0.00;0.00;;;;;;;;;;10472447;28;20494;-70
2021/09/19 11:18:45;;;;;;;0.00;0.00;;;;;;;;;;10460958;28;20517;-70
2021/09/19 11:23:48;;;;;;;0.10;0.10;;;;;;;;;;10455436;28;20166;-70
2021/09/19 11:28:54;;;;;;;0.00;0.00;;;;;;;;;;10465788;28;20075;-75
2021/09/19 11:33:59;;;;;;;0.00;0.00;;;;;;;;;;10458629;28;20045;-73
2021/09/19 11:39:02;;;;;;;0.00;0.00;;;;;;;;;;10464237;28;20049;-69
2021/09/19 11:44:05;;;;;;;0.00;0.00;;;;;;;;;;10453566;28;20441;-70
2021/09/19 11:49:09;;;;;;;0.03;0.03;;;;;;;;;;10459606;28;20062;-75
2021/09/19 11:54:14;;;;;;;0.00;0.00;;;;;;;;;;10458909;28;20047;-70
2021/09/19 11:59:17;;;;;;;0.00;0.00;;;;;;;;;;10456668;28;20521;-71
2021/09/19 12:04:25;;;;;;;0.00;0.00;;;;;;;;;;10461777;28;20052;-73
2021/09/19 12:09:28;;;;;;;0.00;0.00;;;;;;;;;;10465366;28;20064;-69
2021/09/19 12:14:33;;;;;;;0.00;0.00;;;;;;;;;;10461612;28;20491;-67
2021/09/19 12:19:40;;;;;;;0.00;0.00;;;;;;;;;;10452621;28;20074;-66
2021/09/19 12:24:43;;;;;;;0.00;0.00;;;;;;;;;;10459981;28;20047;-69
2021/09/19 12:29:58;;;;;;;0.00;0.00;;;;;;;;;;10462963;28;20041;-68
2021/09/19 12:35:03;;;;;;;0.00;0.00;;;;;;;;;;10464311;28;20049;-68
2021/09/19 12:40:07;;;;;;;0.00;0.00;;;;;;;;;;10464153;28;20131;-69
2021/09/19 12:45:10;;;;;;;0.00;0.00;;;;;;;;;;10460194;28;20072;-68
2021/09/19 12:50:16;;;;;;;0.10;0.00;;;;;;;;;;10464899;28;20041;-68
2021/09/19 12:55:21;;;;;;;0.00;0.00;;;;;;;;;;10463753;28;20368;-68
2021/09/19 13:00:24;;;;;;;0.03;0.03;;;;;;;;;;10466117;28;20041;-68
2021/09/19 13:05:29;;;;;;;0.10;0.10;;;;;;;;;;10462417;28;20060;-68
2021/09/19 13:10:33;;;;;;;0.08;0.08;;;;;;;;;;10460865;28;20149;-68
2021/09/19 13:15:36;;;;;;;0.00;0.00;;;;;;;;;;10464006;28;20033;-67
2021/09/19 13:20:40;;;;;;;0.00;0.00;;;;;;;;;;10460617;28;20040;-67
2021/09/19 13:25:43;;;;;;;0.00;0.00;;;;;;;;;;10460211;28;20044;-67
2021/09/19 13:30:47;;;;;;;0.00;0.00;;;;;;;;;;10459429;28;20487;-65
2021/09/19 13:35:52;;;;;;;0.00;0.00;;;;;;;;;;10455041;28;20148;-67
2021/09/19 13:40:56;;;;;;;0.00;0.00;;;;;;;;;;10461227;28;20049;-66
2021/09/19 13:45:59;;;;;;;0.00;0.00;;;;;;;;;;10463002;28;20421;-67
2021/09/19 13:51:03;;;;;;;0.00;0.00;;;;;;;;;;10464323;28;20052;-67
2021/09/19 13:56:07;;;;;;;0.00;0.00;;;;;;;;;;10456605;28;20511;-66
2021/09/19 14:01:09;;;;;;;0.00;0.00;;;;;;;;;;10450978;28;20065;-65
2021/09/19 14:06:14;;;;;;;0.00;0.00;;;;;;;;;;10456522;28;20218;-69
2021/09/19 14:11:16;;;;;;;0.10;0.10;;;;;;;;;;10442194;28;20136;-68
2021/09/19 14:16:19;;;;;;;0.00;0.00;;;;;;;;;;10452661;28;20045;-69
2021/09/19 14:21:23;;;;;;;0.00;0.00;;;;;;;;;;10464082;28;20465;-68
2021/09/19 14:26:32;;;;;;;0.00;0.00;;;;;;;;;;10466589;28;20046;-68
2021/09/19 14:31:36;;;;;;;0.00;0.00;;;;;;;;;;10457752;28;20729;-69
2021/09/19 14:36:41;;;;;;;0.00;0.00;;;;;;;;;;10469922;28;20048;-68
2021/09/19 14:41:44;;;;;;;0.00;0.00;;;;;;;;;;10457701;28;20037;-69
2021/09/19 14:46:48;;;;;;;0.00;0.00;;;;;;;;;;10453642;28;20418;-68
2021/09/19 14:51:52;;;;;;;0.00;0.00;;;;;;;;;;10472243;28;20123;-68
2021/09/19 14:56:55;;;;;;;0.00;0.00;;;;;;;;;;10462308;28;20491;-69
2021/09/19 15:01:58;;;;;;;0.00;0.00;;;;;;;;;;10462618;28;20636;-69
2021/09/19 15:07:02;;;;;;;0.00;0.00;;;;;;;;;;10469233;28;20047;-68
2021/09/19 15:12:05;;;;;;;0.00;0.00;;;;;;;;;;10473810;28;20049;-68
2021/09/19 15:17:10;;;;;;;0.00;0.00;;;;;;;;;;10467341;28;20402;-69
2021/09/19 15:22:14;;;;;;;0.00;0.00;;;;;;;;;;10475068;28;20040;-68
2021/09/19 15:27:17;;;;;;;0.00;0.00;;;;;;;;;;10465188;28;20037;-69
2021/09/19 15:32:21;;;;;;;0.00;0.00;;;;;;;;;;10467325;28;20421;-69
2021/09/19 15:37:27;;;;;;;0.00;0.00;;;;;;;;;;10452343;28;20094;-69
2021/09/19 15:42:30;;;;;;;0.00;0.00;;;;;;;;;;10441259;28;20063;-69
2021/09/19 15:47:34;;;;;;;0.00;0.00;;;;;;;;;;10459455;28;20040;-72
2021/09/19 15:52:42;;;;;;;0.00;0.00;;;;;;;;;;10466252;28;20049;-68
2021/09/19 15:57:45;;;;;;;0.00;0.00;;;;;;;;;;10472626;28;20049;-67
2021/09/19 16:02:48;;;;;;;0.00;0.00;;;;;;;;;;10465822;28;20059;-67
2021/09/19 16:07:53;;;;;;;0.00;0.00;;;;;;;;;;10458851;28;20411;-68
2021/09/19 16:12:57;;;;;;;0.00;0.00;;;;;;;;;;10462850;28;20064;-67
2021/09/19 16:18:00;;;;;;;0.00;0.00;;;;;;;;;;10469813;28;20051;-66
2021/09/19 16:23:05;;;;;;;0.00;0.00;;;;;;;;;;10474398;28;20056;-67
2021/09/19 16:28:09;;;;;;;0.00;0.00;;;;;;;;;;10470473;28;20397;-68
2021/09/19 16:33:13;;;;;;;0.10;0.10;;;;;;;;;;10462811;28;20053;-67
2021/09/19 16:38:17;;;;;;;0.00;0.00;;;;;;;;;;10469242;28;20430;-68
2021/09/19 16:43:20;;;;;;;0.00;0.00;;;;;;;;;;10466779;28;20049;-67
2021/09/19 16:48:22;;;;;;;0.00;0.00;;;;;;;;;;10465621;28;20749;-66
2021/09/19 16:53:27;;;;;;;0.00;0.00;;;;;;;;;;10470002;28;20138;-67
2021/09/19 16:58:30;;;;;;;0.00;0.00;;;;;;;;;;10472289;28;20071;-66
2021/09/19 17:03:33;;;;;;;0.00;0.00;;;;;;;;;;10474586;28;20248;-66
2021/09/19 17:08:38;;;;;;;0.00;0.00;;;;;;;;;;10464908;28;20044;-66
2021/09/19 17:13:41;;;;;;;0.00;0.00;;;;;;;;;;10463743;28;20056;-66
2021/09/19 17:18:43;;;;;;;0.00;0.00;;;;;;;;;;10460048;28;20401;-67
2021/09/19 17:23:48;;;;;;;0.00;0.00;;;;;;;;;;10457019;28;20044;-67
2021/09/19 17:28:52;;;;;;;0.00;0.00;;;;;;;;;;10452973;28;20039;-66
2021/09/19 17:33:58;;;;;;;0.00;0.00;;;;;;;;;;10472963;28;20078;-66
2021/09/19 17:39:02;;;;;;;0.00;0.00;;;;;;;;;;10482339;28;20486;-66
2021/09/19 17:44:05;;;;;;;0.00;0.00;;;;;;;;;;10466368;28;20049;-67
2021/09/19 17:49:08;;;;;;;0.00;0.00;;;;;;;;;;10458206;28;20064;-67
2021/09/19 17:54:13;;;;;;;0.00;0.00;;;;;;;;;;10469688;28;20396;-66
2021/09/19 17:59:16;;;;;;;0.00;0.00;;;;;;;;;;10464961;28;20040;-68
2021/09/19 18:04:20;;;;;;;0.00;0.00;;;;;;;;;;10463358;28;20376;-74
2021/09/19 18:09:24;;;;;;;0.00;0.00;;;;;;;;;;10463280;28;20045;-71
2021/09/19 18:14:31;;;;;;;0.00;0.00;;;;;;;;;;10468663;28;20044;-73
2021/09/19 18:19:34;;;;;;;0.10;0.10;;;;;;;;;;10460704;28;20037;-68
2021/09/19 18:24:38;;;;;;;0.10;0.10;;;;;;;;;;10464229;28;20056;-72
2021/09/19 18:29:42;;;;;;;0.00;0.00;;;;;;;;;;10468100;28;20510;-70
2021/09/19 18:34:47;;;;;;;0.00;0.00;;;;;;;;;;10467220;28;20164;-69
2021/09/19 18:39:53;;;;;;;0.00;0.00;;;;;;;;;;10467167;28;20049;-70
2021/09/19 18:44:57;;;;;;;0.00;0.00;;;;;;;;;;10468092;28;20041;-72
2021/09/19 18:50:01;;;;;;;0.00;0.00;;;;;;;;;;10466764;28;20483;-68
2021/09/19 18:55:09;;;;;;;0.00;0.00;;;;;;;;;;10460252;28;20138;-69
2021/09/19 19:00:14;;;;;;;0.10;0.10;;;;;;;;;;10448166;28;20059;-68
2021/09/19 19:05:16;;;;;;;0.00;0.00;;;;;;;;;;10446423;28;20446;-68
2021/09/19 19:10:20;;;;;;;0.00;0.00;;;;;;;;;;10457176;28;20057;-67
2021/09/19 19:15:24;;;;;;;0.00;0.00;;;;;;;;;;10452309;28;20071;-67
2021/09/19 19:20:27;;;;;;;0.00;0.00;;;;;;;;;;10467901;28;20534;-68
2021/09/19 19:25:31;;;;;;;0.10;0.10;;;;;;;;;;10456166;28;20143;-68
2021/09/19 19:30:34;;;;;;;0.00;0.00;;;;;;;;;;10458410;28;20036;-68
2021/09/19 19:35:37;;;;;;;0.10;0.10;;;;;;;;;;10441926;28;20041;-68
2021/09/19 19:40:41;;;;;;;0.00;0.00;;;;;;;;;;10439791;28;20043;-68
2021/09/19 19:45:45;;;;;;;0.00;0.00;;;;;;;;;;10445826;28;20047;-68
2021/09/19 19:50:50;;;;;;;0.00;0.00;;;;;;;;;;10448662;28;20044;-68
2021/09/19 19:55:59;;;;;;;0.00;0.00;;;;;;;;;;10437429;28;20064;-68
2021/09/19 20:01:03;;;;;;;0.10;0.10;;;;;;;;;;10444753;28;20041;-68
2021/09/19 20:06:06;;;;;;;0.10;0.10;;;;;;;;;;10450956;28;20830;-68
2021/09/19 20:11:11;;;;;;;0.10;0.10;;;;;;;;;;10452120;28;20056;-68
2021/09/19 20:16:17;;;;;;;0.00;0.00;;;;;;;;;;10448421;28;20738;-67
2021/09/19 20:21:23;;;;;;;0.00;0.00;;;;;;;;;;10453678;28;20479;-68
2021/09/19 20:26:29;;;;;;;0.10;0.10;;;;;;;;;;10451975;28;20683;-68
2021/09/19 20:31:32;;;;;;;0.08;0.08;;;;;;;;;;10430108;28;20065;-68
2021/09/19 20:36:36;;;;;;;0.00;0.00;;;;;;;;;;10420362;28;20049;-68
2021/09/19 20:41:40;;;;;;;0.00;0.00;;;;;;;;;;10417082;28;20049;-68
2021/09/19 20:46:44;;;;;;;0.00;0.00;;;;;;;;;;10422706;28;20076;-67
2021/09/19 20:51:47;;;;;;;0.10;0.03;;;;;;;;;;10396313;28;20102;-67
2021/09/19 20:56:52;;;;;;;0.00;0.00;;;;;;;;;;10421519;28;20053;-68
2021/09/19 21:01:56;;;;;;;0.03;0.03;;;;;;;;;;10422061;28;20132;-68
2021/09/19 21:07:00;;;;;;;0.00;0.00;;;;;;;;;;10419709;28;20067;-69
2021/09/19 21:12:05;;;;;;;0.00;0.00;;;;;;;;;;10417123;28;20053;-68
2021/09/19 21:17:09;;;;;;;0.10;0.10;;;;;;;;;;10426646;28;20065;-69
2021/09/19 21:22:12;;;;;;;0.00;0.00;;;;;;;;;;10420542;28;20144;-69
2021/09/19 21:27:17;;;;;;;0.00;0.00;;;;;;;;;;10425990;28;20045;-68
2021/09/19 21:32:21;;;;;;;0.05;0.05;;;;;;;;;;10422229;28;20041;-69
2021/09/19 21:37:24;;;;;;;0.05;0.05;;;;;;;;;;10426239;28;20574;-69
2021/09/19 21:42:29;;;;;;;0.00;0.00;;;;;;;;;;10421973;28;20041;-69
2021/09/19 21:47:32;;;;;;;0.00;0.00;;;;;;;;;;10423095;28;20060;-69
2021/09/19 21:52:37;;;;;;;0.10;0.10;;;;;;;;;;10422454;28;20088;-68
2021/09/19 21:57:42;;;;;;;0.05;0.05;;;;;;;;;;10426228;28;20045;-68
2021/09/19 22:02:46;;;;;;;0.00;0.00;;;;;;;;;;10427349;28;20056;-68
2021/09/19 22:07:52;;;;;;;0.00;0.00;;;;;;;;;;10416821;28;20044;-68
2021/09/19 22:13:05;;;;;;;0.00;0.00;;;;;;;;;;10418162;28;20775;-68
2021/09/19 22:18:09;;;;;;;0.00;0.00;;;;;;;;;;10416161;28;20049;-68
2021/09/19 22:23:14;;;;;;;0.00;0.00;;;;;;;;;;10421582;28;20041;-68
2021/09/19 22:28:19;;;;;;;0.00;0.00;;;;;;;;;;10407021;28;20037;-68
2021/09/19 22:33:28;;;;;;;0.00;0.00;;;;;;;;;;10415065;28;20041;-68
2021/09/19 22:38:32;;;;;;;0.00;0.00;;;;;;;;;;10414345;28;20056;-68
2021/09/19 22:43:37;;;;;;;0.15;0.10;;;;;;;;;;10411753;28;20041;-68
2021/09/19 22:48:41;;;;;;;0.28;0.10;;;;;;;;;;10412804;28;20056;-68
2021/09/19 22:53:47;;;;;;;0.00;0.00;;;;;;;;;;10415592;28;20037;-68
2021/09/19 22:58:54;;;;;;;0.00;0.00;;;;;;;;;;10413677;28;20482;-68
2021/09/19 23:04:01;;;;;;;0.00;0.00;;;;;;;;;;10410729;28;20941;-68
2021/09/19 23:09:04;;;;;;;0.00;0.00;;;;;;;;;;10417119;28;20124;-68
2021/09/19 23:14:09;;;;;;;0.00;0.00;;;;;;;;;;10415366;28;20048;-68
2021/09/19 23:19:12;;;;;;;0.00;0.00;;;;;;;;;;10416912;28;20033;-67
2021/09/19 23:24:16;;;;;;;0.00;0.00;;;;;;;;;;10414487;28;20052;-67
2021/09/19 23:29:21;;;;;;;0.10;0.10;;;;;;;;;;10414616;28;20064;-67
2021/09/19 23:34:24;;;;;;;0.00;0.00;;;;;;;;;;10419200;28;20045;-68
2021/09/19 23:39:27;;;;;;;0.00;0.00;;;;;;;;;;10425431;28;20773;-67
2021/09/19 23:44:33;;;;;;;0.00;0.00;;;;;;;;;;10419760;28;20052;-67
2021/09/19 23:49:37;;;;;;;0.05;0.05;;;;;;;;;;10423994;28;20049;-67
2021/09/19 23:54:40;;;;;;;0.00;0.00;;;;;;;;;;10424627;28;20065;-67
2021/09/19 23:59:46;;;;;;;0.00;0.00;;;;;;;;;;10428965;28;20076;-67
